Anoka, Minnesota
Current Conditions -  °F | °C
As of 6:55 AM on Thursday 27 Nov 2014 (Local Time) from KANE Reporting Station
Clear Clear  
Wind Chill: -14°   Ceiling: Unl
Heat Index: -2°   Visibility: 10mi
Dew Point: -6°   Wind: 6mph
Humidity: 85%   Direction: 290°WNW
Pressure: 30.48"   Gusts: NA
Location:  45.2°N, 93.39°W
Report Text: KANE 271255Z 29005KT 10SM SKC M19/M21 A3048
Loading
Personal Weather Stations






























Interactive Weather Map New forecast layout! Learn more

10-Day Weather Forecast

Advertisements
Track Severe Weather on mobile